Historyczne dane pomiarowe

Dodano dane terminowe – wersja testowa.

Dane z okresu 1951-2019

Wersja bazy: 1.34 [2019-03-16, lista zmian], aktualizacja planowana na 2019-04-15

Dane meteo z obszaru Polski uzyskane na podstawie danych udostępnionych przez Instytut Meteorologii i Gospodarki Wodnej – Państwowy Instytut Badawczy.

 

Wybierz Datę:    

       

TemperaturaWilgotnośćWiatrCiśnienieOpadyŚniegCzas trwania zjawisk
 Stacja t tx tn tng RH VA  wxwx mslp ppp RRR   cm mm wxwxwxwxwxwxwx
1952-02-26 0.2 0.8 -1.7 -5.5 96.5- 8.0 0.7---- 5.1------------
1952-02-27 -1.3 2.0 -3.5 -0.4 95.5- 6.0 3.0---- 1.2------------
1952-02-28 -2.9 -2.2 -4.7 -8.6 86.5- 7.7 2.7---- 0.4-- 1---------
1952-02-29 -0.6 0.3 -3.1 -2.7100.0- 8.0 3.3---- 0.2------------
1952-03-01 -1.2 2.0 -2.9 -0.5 94.3- 6.3 8.7---- 1.3------------
1952-03-02 -2.6 1.4 -4.9 -9.4 76.3- 3.0 2.7---- 0.0------------
1952-03-03 -1.7 0.1 -5.0-10.8 88.3- 6.3 3.7---- 0.3------------
1952-03-04 -6.0 -1.9 -8.1 -6.4 71.3- 3.0 6.0---- 0.0------------
1952-03-05 -4.9 -2.1 -9.2-12.2 85.3- 2.7 6.7---- 0.0------------
1952-03-06 -6.4 -2.4 -9.2-10.7 70.0- 0.7 6.7---- 0.0------------
1952-03-07 -5.6 -2.0-10.3-12.5 59.3- 7.0 6.7---- 0.0------------
1952-03-08 -3.9 1.4 -9.0-12.0 62.5- 0.0 6.7---- 0.0------------
1952-03-09 -1.4 5.2 -8.2-11.6 56.0- 0.0 6.7---- 0.0------------
1952-03-10 1.6 7.5 -4.5 -8.2 55.3- 0.0 4.3---- 0.0------------
1952-03-11 2.6 7.7 -3.1 -5.7 67.3- 2.3 5.3---- 0.0------------
1952-03-12 1.7 3.3 0.5 -0.1 97.3- 7.7 2.7---- 0.0------------
1952-03-13 -1.1 1.6 -3.6 0.4 95.3- 8.0 8.3---- 16.0------------
1952-03-14 -4.6 -2.8 -6.5 -7.3 83.5- 3.0 5.0---- 1.3-- 21---------
1952-03-15 -0.3 2.9-10.3-15.1 81.8- 8.0 4.0---- 0.0-- 17---------
1952-03-16 1.6 7.1 -2.0 -5.1 53.5- 3.0 3.3---- 0.0-- 8---------
1952-03-17 -0.8 4.7 -8.3 -8.2 90.5- 1.7 2.0---- 0.0-- 5---------
1952-03-18 -4.2 -0.5 -6.1-10.7 70.3- 2.0 1.3---- 0.0-- 4---------
1952-03-19 -4.5 1.6-12.2-11.4 69.0- 0.0 3.3---- 0.0-- 4---------
1952-03-20 -6.3 -1.1-12.7-12.1 80.5- 3.0 0.7---- 0.0-- 4---------
1952-03-21 -6.8 -1.7 -9.4-10.5 84.3- 5.3 2.0---- 0.4-- 4---------
1952-03-22 -7.1 -3.2-15.0-14.4 79.3- 3.3 0.7---- 0.0-- 5---------
1952-03-23 -5.9 -2.4 -8.4 -7.1 72.5- 3.0 3.7---- 0.6-- 5---------
1952-03-24 0.0 3.9 -8.1 -8.7 93.0- 7.3 4.0---- 0.0-- 5---------
1952-03-25 -4.6 0.7 -7.6 -4.2 85.3- 2.7 4.7---- 0.0-- 3---------
1952-03-26 -6.9 -3.9 -8.9 -9.4 77.8- 1.7 4.7---- 0.0------------
94.0 ms

 

Źródłem pochodzenia danych jest Instytut Meteorologii i Gospodarki Wodnej – Państwowy Instytut Badawczy. Dane Instytutu Meteorologii i Gospodarki Wodnej – Państwowego Instytutu Badawczego zostały przetworzone.

Dane źródłowe można odnaleźć na stronie https://dane.imgw.pl